Time;durP1;ratioP1;P1;durP2;ratioP2;P2;SDS_P1;SDS_P2;PMS_P1;PMS_P2;Temp;Humidity;BMP_temperature;BMP_pressure;BME280_temperature;BME280_humidity;BME280_pressure;Samples;Min_cycle;Max_cycle;Signal;HPM_P1;HPM_P2
2022/04/06 00:02:16;;;;;;;;;;;8.20;99.90;;;;;;4940478;28;19931;-71
2022/04/06 00:04:48;;;;;;;;;;;8.20;99.90;;;;;;4945578;29;19927;-71
2022/04/06 00:07:20;;;;;;;;;;;8.20;99.90;;;;;;4928899;29;19929;-70
2022/04/06 00:09:46;;;;;;;;;;;8.20;99.90;;;;;;4937595;29;20370;-70
2022/04/06 00:12:18;;;;;;;;;;;8.10;99.90;;;;;;4931961;29;19933;-71
2022/04/06 00:14:49;;;;;;;;;;;8.10;99.90;;;;;;4944056;29;20609;-71
2022/04/06 00:17:21;;;;;;;;;;;8.10;99.90;;;;;;4936559;29;19923;-70
2022/04/06 00:19:48;;;;;;;;;;;8.20;99.90;;;;;;4937484;29;19927;-71
2022/04/06 00:22:14;;;;;;;;;;;8.20;99.90;;;;;;4940531;29;19929;-71
2022/04/06 00:24:47;;;;;;;;;;;8.20;99.90;;;;;;4947215;29;19922;-70
2022/04/06 00:27:19;;;;;;;;;;;8.20;99.90;;;;;;4918543;29;19923;-71
2022/04/06 00:29:46;;;;;;;;;;;8.20;99.90;;;;;;4901563;29;19923;-71
2022/04/06 00:32:12;;;;;;;;;;;8.20;99.90;;;;;;4933755;29;20325;-71
2022/04/06 00:37:24;;;;;;;;;;;8.20;99.90;;;;;;4955102;29;20261;-70
2022/04/06 00:39:56;;;;;;;;;;;8.20;99.90;;;;;;4955143;29;19922;-71
2022/04/06 00:42:28;;;;;;;;;;;8.20;99.90;;;;;;4944311;28;19930;-73
2022/04/06 00:44:54;;;;;;;;;;;8.20;99.90;;;;;;4931064;29;19928;-71
2022/04/06 00:47:26;;;;;;;;;;;8.20;99.90;;;;;;4951572;29;19927;-69
2022/04/06 00:49:58;;;;;;;;;;;8.30;99.90;;;;;;4936930;29;19965;-71
2022/04/06 00:52:30;;;;;;;;;;;8.20;99.90;;;;;;4934189;29;19929;-71
2022/04/06 00:55:02;;;;;;;;;;;8.20;99.90;;;;;;4931567;29;19923;-71
2022/04/06 00:57:29;;;;;;;;;;;8.20;99.90;;;;;;4936412;29;19922;-71
2022/04/06 01:00:01;;;;;;;;;;;8.20;99.90;;;;;;4935257;29;19923;-71
2022/04/06 01:02:33;;;;;;;;;;;8.20;99.90;;;;;;4940494;29;20401;-70
2022/04/06 01:05:05;;;;;;;;;;;8.20;99.90;;;;;;4941434;29;19923;-70
2022/04/06 01:07:37;;;;;;;;;;;8.10;99.90;;;;;;4934446;29;20023;-71
2022/04/06 01:10:08;;;;;;;;;;;8.10;99.90;;;;;;4919564;29;19986;-71
2022/04/06 01:12:35;;;;;;;;;;;8.10;99.90;;;;;;4932913;29;20010;-71
2022/04/06 01:15:07;;;;;;;;;;;8.10;99.90;;;;;;4944723;29;20392;-71
2022/04/06 01:17:35;;;;;;;;;;;8.00;99.90;;;;;;4937925;29;20374;-71
2022/04/06 01:20:05;;;;;;;;;;;8.00;99.90;;;;;;4954881;28;19922;-71
2022/04/06 01:22:37;;;;;;;;;;;8.00;99.90;;;;;;4939337;29;20278;-73
2022/04/06 01:25:05;;;;;;;;;;;8.00;99.90;;;;;;4945389;29;19929;-72
2022/04/06 01:27:31;;;;;;;;;;;8.00;99.90;;;;;;4953648;29;19961;-71
2022/04/06 01:29:58;;;;;;;;;;;8.00;99.90;;;;;;4953469;29;19938;-70
2022/04/06 01:32:35;;;;;;;;;;;8.00;99.90;;;;;;4933497;28;19922;-73
2022/04/06 01:35:06;;;;;;;;;;;8.00;99.90;;;;;;4941209;29;19986;-71
2022/04/06 01:37:38;;;;;;;;;;;8.00;99.90;;;;;;4919096;29;19923;-71
2022/04/06 01:40:05;;;;;;;;;;;8.00;99.90;;;;;;4915317;29;19979;-71
2022/04/06 01:42:37;;;;;;;;;;;8.00;99.90;;;;;;4923089;29;20016;-71
2022/04/06 01:45:09;;;;;;;;;;;8.00;99.90;;;;;;4935702;28;19931;-71
2022/04/06 01:47:35;;;;;;;;;;;7.90;99.90;;;;;;4935354;29;19923;-71
2022/04/06 01:52:47;;;;;;;;;;;7.90;99.90;;;;;;4938343;29;19929;-71
2022/04/06 01:55:19;;;;;;;;;;;7.90;99.90;;;;;;4941236;29;19922;-70
2022/04/06 01:57:46;;;;;;;;;;;7.90;99.90;;;;;;4935019;29;19927;-71
2022/04/06 02:00:15;;;;;;;;;;;7.90;99.90;;;;;;4933758;29;19970;-71
2022/04/06 02:02:43;;;;;;;;;;;7.90;99.90;;;;;;4924948;29;19985;-71
2022/04/06 02:05:13;;;;;;;;;;;7.90;99.90;;;;;;4937106;29;20378;-71
2022/04/06 02:07:42;;;;;;;;;;;7.90;99.90;;;;;;4933835;29;19923;-71
2022/04/06 02:10:09;;;;;;;;;;;7.80;99.90;;;;;;4917790;29;19931;-70
2022/04/06 02:12:37;;;;;;;;;;;7.80;99.90;;;;;;4940197;29;19929;-71
2022/04/06 02:15:10;;;;;;;;;;;7.90;99.90;;;;;;4929322;29;19926;-73
2022/04/06 02:17:37;;;;;;;;;;;7.90;99.90;;;;;;4952755;29;19923;-70
2022/04/06 02:20:09;;;;;;;;;;;7.90;99.90;;;;;;4952284;28;20009;-71
2022/04/06 02:22:36;;;;;;;;;;;7.90;99.90;;;;;;4942092;29;20369;-70
2022/04/06 02:25:08;;;;;;;;;;;7.90;99.90;;;;;;4940348;29;20366;-72
2022/04/06 02:27:43;;;;;;;;;;;7.90;99.90;;;;;;4934480;29;20377;-71
2022/04/06 02:30:10;;;;;;;;;;;7.90;99.90;;;;;;4917583;29;19923;-70
2022/04/06 02:32:41;;;;;;;;;;;7.90;99.90;;;;;;4937993;29;19922;-71
2022/04/06 02:35:13;;;;;;;;;;;7.90;99.90;;;;;;4952069;29;20399;-70
2022/04/06 02:37:41;;;;;;;;;;;7.90;99.90;;;;;;4944911;28;19922;-71
2022/04/06 02:40:14;;;;;;;;;;;7.90;99.90;;;;;;4933231;29;20026;-71
2022/04/06 02:42:41;;;;;;;;;;;8.00;99.90;;;;;;4935948;29;19948;-71
2022/04/06 02:45:13;;;;;;;;;;;8.00;99.90;;;;;;4945371;29;20021;-71
2022/04/06 02:47:40;;;;;;;;;;;8.00;99.90;;;;;;4953550;29;19923;-71
2022/04/06 02:50:11;;;;;;;;;;;7.90;99.90;;;;;;4951714;28;19922;-71
2022/04/06 02:52:43;;;;;;;;;;;8.00;99.90;;;;;;4937339;29;19923;-71
2022/04/06 02:55:15;;;;;;;;;;;8.00;99.90;;;;;;4936253;29;19922;-70
2022/04/06 02:57:42;;;;;;;;;;;8.00;99.90;;;;;;4951810;29;19923;-70
2022/04/06 03:00:14;;;;;;;;;;;8.00;99.90;;;;;;4950166;29;20033;-73
2022/04/06 03:02:41;;;;;;;;;;;8.00;99.90;;;;;;4927181;29;19930;-71
2022/04/06 03:05:08;;;;;;;;;;;8.00;99.90;;;;;;4942819;29;19996;-72
2022/04/06 03:07:40;;;;;;;;;;;7.90;99.90;;;;;;4952097;29;19958;-70
2022/04/06 03:10:07;;;;;;;;;;;7.90;99.90;;;;;;4951821;29;19933;-72
2022/04/06 03:12:38;;;;;;;;;;;7.90;99.90;;;;;;4941028;29;20373;-71
2022/04/06 03:15:06;;;;;;;;;;;7.90;99.90;;;;;;4944995;29;19977;-72
2022/04/06 03:17:38;;;;;;;;;;;7.90;99.90;;;;;;4941629;29;20026;-70
2022/04/06 03:20:15;;;;;;;;;;;7.90;99.90;;;;;;4934000;29;19926;-73
2022/04/06 03:22:42;;;;;;;;;;;8.00;99.90;;;;;;4939825;29;19961;-70
2022/04/06 03:25:13;;;;;;;;;;;8.00;99.90;;;;;;4945440;28;19922;-70
2022/04/06 03:27:45;;;;;;;;;;;8.00;99.90;;;;;;4937255;29;19968;-71
2022/04/06 03:30:17;;;;;;;;;;;8.00;99.90;;;;;;4937078;29;20294;-71
2022/04/06 03:32:48;;;;;;;;;;;8.00;99.90;;;;;;4933804;29;19922;-71
2022/04/06 03:35:20;;;;;;;;;;;8.00;99.90;;;;;;4940756;29;19923;-71
2022/04/06 03:37:52;;;;;;;;;;;7.90;99.90;;;;;;4933236;29;19929;-71
2022/04/06 03:40:23;;;;;;;;;;;8.00;99.90;;;;;;4932864;29;19923;-71
2022/04/06 03:42:55;;;;;;;;;;;8.00;99.90;;;;;;4938813;29;19922;-71
2022/04/06 03:45:27;;;;;;;;;;;8.00;99.90;;;;;;4940315;29;19958;-71
2022/04/06 03:47:54;;;;;;;;;;;8.00;99.90;;;;;;4933593;29;20271;-71
2022/04/06 03:50:25;;;;;;;;;;;8.00;99.90;;;;;;4932671;28;20021;-71
2022/04/06 03:52:57;;;;;;;;;;;8.00;99.90;;;;;;4932177;29;20016;-70
2022/04/06 03:55:29;;;;;;;;;;;7.90;99.90;;;;;;4945057;28;19922;-70
2022/04/06 03:58:00;;;;;;;;;;;7.90;99.90;;;;;;4919648;29;20017;-72
2022/04/06 04:00:32;;;;;;;;;;;7.90;99.90;;;;;;4916617;29;19929;-70
2022/04/06 04:03:05;;;;;;;;;;;7.90;99.90;;;;;;4941155;29;20013;-71
2022/04/06 04:05:37;;;;;;;;;;;8.00;99.90;;;;;;4938781;29;20048;-71
2022/04/06 04:08:04;;;;;;;;;;;8.00;99.90;;;;;;4913819;29;20293;-71
2022/04/06 04:10:36;;;;;;;;;;;8.00;99.90;;;;;;4929902;29;19929;-71
2022/04/06 04:13:07;;;;;;;;;;;8.00;99.90;;;;;;4928641;29;20416;-72
2022/04/06 04:15:39;;;;;;;;;;;8.00;99.90;;;;;;4951636;29;19976;-71
2022/04/06 04:18:06;;;;;;;;;;;8.00;99.90;;;;;;4952831;28;19933;-72
2022/04/06 04:20:40;;;;;;;;;;;8.00;99.90;;;;;;4921321;29;19923;-70
2022/04/06 04:23:11;;;;;;;;;;;8.00;99.90;;;;;;4938199;29;20356;-71
2022/04/06 04:25:43;;;;;;;;;;;8.00;99.90;;;;;;4945109;28;19923;-72
2022/04/06 04:28:15;;;;;;;;;;;8.00;99.90;;;;;;4955304;28;19930;-71
2022/04/06 04:30:46;;;;;;;;;;;8.00;99.90;;;;;;4937426;29;19961;-71
2022/04/06 04:33:13;;;;;;;;;;;8.00;99.90;;;;;;4932421;29;20389;-71
2022/04/06 04:35:40;;;;;;;;;;;8.00;99.90;;;;;;4943619;29;19929;-71
2022/04/06 04:38:06;;;;;;;;;;;8.00;99.90;;;;;;4937228;29;20301;-71
2022/04/06 04:40:38;;;;;;;;;;;8.00;99.90;;;;;;4935471;29;19923;-71
2022/04/06 04:43:05;;;;;;;;;;;8.00;99.90;;;;;;4940895;29;19923;-71
2022/04/06 04:45:36;;;;;;;;;;;8.00;99.90;;;;;;4925533;29;19923;-72
2022/04/06 04:48:08;;;;;;;;;;;8.00;99.90;;;;;;4936950;29;19927;-71
2022/04/06 04:50:40;;;;;;;;;;;8.00;99.90;;;;;;4932077;29;19938;-71
2022/04/06 04:53:12;;;;;;;;;;;8.00;99.90;;;;;;4931885;29;19963;-72
2022/04/06 04:55:43;;;;;;;;;;;8.00;99.90;;;;;;4934530;29;19933;-72
2022/04/06 04:58:15;;;;;;;;;;;8.10;99.90;;;;;;4927735;29;19923;-71
2022/04/06 05:00:42;;;;;;;;;;;8.00;99.90;;;;;;4929960;29;19931;-73
2022/04/06 05:03:13;;;;;;;;;;;8.00;99.90;;;;;;4934225;29;20018;-71
2022/04/06 05:05:42;;;;;;;;;;;8.00;99.90;;;;;;4923196;29;19922;-71
2022/04/06 05:08:14;;;;;;;;;;;8.00;99.90;;;;;;4925434;29;19923;-72
2022/04/06 05:10:41;;;;;;;;;;;8.10;99.90;;;;;;4919473;29;19923;-71
2022/04/06 05:13:17;;;;;;;;;;;8.10;99.90;;;;;;4940806;29;19957;-71
2022/04/06 05:15:49;;;;;;;;;;;8.10;99.90;;;;;;4940533;29;19922;-72
2022/04/06 05:18:21;;;;;;;;;;;8.10;99.90;;;;;;4936956;29;20296;-71
2022/04/06 05:20:53;;;;;;;;;;;8.10;99.90;;;;;;4940200;29;19926;-72
2022/04/06 05:23:20;;;;;;;;;;;8.10;99.90;;;;;;4911580;29;19927;-71
2022/04/06 05:25:51;;;;;;;;;;;8.20;99.90;;;;;;4933210;29;19922;-72
2022/04/06 05:28:18;;;;;;;;;;;8.20;99.90;;;;;;4919578;29;19922;-72
2022/04/06 05:30:51;;;;;;;;;;;8.10;99.90;;;;;;4930335;29;19923;-71
2022/04/06 05:33:22;;;;;;;;;;;8.20;99.90;;;;;;4921083;29;19926;-71
2022/04/06 05:35:54;;;;;;;;;;;8.20;99.90;;;;;;4942504;29;19967;-71
2022/04/06 05:38:21;;;;;;;;;;;8.20;99.90;;;;;;4919029;29;19931;-71
2022/04/06 05:40:53;;;;;;;;;;;8.20;99.90;;;;;;4916164;29;19929;-72
2022/04/06 05:43:24;;;;;;;;;;;8.20;99.90;;;;;;4934260;29;19930;-71
2022/04/06 05:45:56;;;;;;;;;;;8.30;99.90;;;;;;4935549;29;20390;-72
2022/04/06 05:48:28;;;;;;;;;;;8.30;99.90;;;;;;4943409;29;19929;-71
2022/04/06 05:50:54;;;;;;;;;;;8.30;99.90;;;;;;4937570;29;19962;-74
2022/04/06 05:53:26;;;;;;;;;;;8.30;99.90;;;;;;4920298;29;19973;-72
2022/04/06 05:55:58;;;;;;;;;;;8.30;99.90;;;;;;4944540;29;19954;-71
2022/04/06 05:58:29;;;;;;;;;;;8.30;99.90;;;;;;4931662;29;19986;-72
2022/04/06 06:00:56;;;;;;;;;;;8.40;99.90;;;;;;4931941;29;20411;-72
2022/04/06 06:03:28;;;;;;;;;;;8.40;99.90;;;;;;4933207;29;20593;-72
2022/04/06 06:05:59;;;;;;;;;;;8.40;99.90;;;;;;4924794;29;19929;-72
2022/04/06 06:08:26;;;;;;;;;;;8.40;99.90;;;;;;4944351;28;20022;-71
2022/04/06 06:10:52;;;;;;;;;;;8.40;99.90;;;;;;4924255;29;20367;-72
2022/04/06 06:13:24;;;;;;;;;;;8.40;99.90;;;;;;4945252;29;19922;-72
2022/04/06 06:15:56;;;;;;;;;;;8.40;99.90;;;;;;4937633;29;19923;-71
2022/04/06 06:18:24;;;;;;;;;;;8.50;99.90;;;;;;4916533;29;20033;-72
2022/04/06 06:20:59;;;;;;;;;;;8.50;99.90;;;;;;4916880;29;20031;-72
2022/04/06 06:23:30;;;;;;;;;;;8.50;99.90;;;;;;4931882;29;20453;-74
2022/04/06 06:26:02;;;;;;;;;;;8.50;99.90;;;;;;4936919;29;19933;-71
2022/04/06 06:28:30;;;;;;;;;;;8.60;99.90;;;;;;4934006;29;20378;-71
2022/04/06 06:31:01;;;;;;;;;;;8.60;99.90;;;;;;4933141;29;19923;-72
2022/04/06 06:33:33;;;;;;;;;;;8.70;99.90;;;;;;4946402;29;19929;-71
2022/04/06 06:36:05;;;;;;;;;;;8.70;99.90;;;;;;4943624;29;19965;-71
2022/04/06 06:38:36;;;;;;;;;;;8.80;99.90;;;;;;4935541;29;19922;-71
2022/04/06 06:41:08;;;;;;;;;;;8.80;99.90;;;;;;4916496;29;19930;-73
2022/04/06 06:43:34;;;;;;;;;;;8.80;99.90;;;;;;4939532;29;19944;-72
2022/04/06 06:46:06;;;;;;;;;;;8.90;99.90;;;;;;4915893;29;19923;-71
2022/04/06 06:48:38;;;;;;;;;;;8.90;99.90;;;;;;4929752;29;19930;-71
2022/04/06 06:51:10;;;;;;;;;;;9.00;99.90;;;;;;4932141;29;20302;-72
2022/04/06 06:53:42;;;;;;;;;;;9.00;99.90;;;;;;4939907;29;19978;-72
2022/04/06 06:56:14;;;;;;;;;;;9.00;99.90;;;;;;4945156;29;19965;-73
2022/04/06 06:58:40;;;;;;;;;;;9.10;99.90;;;;;;4933483;29;19923;-71
2022/04/06 07:01:12;;;;;;;;;;;9.10;99.90;;;;;;4933902;29;20282;-71
2022/04/06 07:03:43;;;;;;;;;;;9.20;99.90;;;;;;4944983;29;19926;-74
2022/04/06 07:06:10;;;;;;;;;;;9.20;99.90;;;;;;4946569;28;19989;-72
2022/04/06 07:08:42;;;;;;;;;;;9.20;99.90;;;;;;4917509;29;20457;-73
2022/04/06 07:11:14;;;;;;;;;;;9.30;99.90;;;;;;4931617;29;19923;-72
2022/04/06 07:13:45;;;;;;;;;;;9.30;99.90;;;;;;4927931;29;19929;-72
2022/04/06 07:16:17;;;;;;;;;;;9.30;99.90;;;;;;4925033;29;19923;-72
2022/04/06 07:18:49;;;;;;;;;;;9.40;99.90;;;;;;4932467;29;20021;-72
2022/04/06 07:21:20;;;;;;;;;;;9.40;99.90;;;;;;4929700;29;20382;-73
2022/04/06 07:23:47;;;;;;;;;;;9.50;99.90;;;;;;4930794;29;19930;-73
2022/04/06 07:26:19;;;;;;;;;;;9.50;99.90;;;;;;4926508;29;19929;-72
2022/04/06 07:28:50;;;;;;;;;;;9.50;99.90;;;;;;4934067;29;19958;-73
2022/04/06 07:31:22;;;;;;;;;;;9.60;99.90;;;;;;4929788;29;19943;-72
2022/04/06 07:33:50;;;;;;;;;;;9.60;99.90;;;;;;4937223;29;19923;-73
2022/04/06 07:36:20;;;;;;;;;;;9.60;99.90;;;;;;4926246;29;20274;-73
2022/04/06 07:38:51;;;;;;;;;;;9.70;99.90;;;;;;4925470;29;20383;-73
2022/04/06 07:41:18;;;;;;;;;;;9.70;99.90;;;;;;4928761;29;19929;-72
2022/04/06 07:43:50;;;;;;;;;;;9.70;99.90;;;;;;4934086;29;20017;-73
2022/04/06 07:46:16;;;;;;;;;;;9.80;99.90;;;;;;4913745;29;19927;-72
2022/04/06 07:48:48;;;;;;;;;;;9.80;99.90;;;;;;4933057;29;20382;-73
2022/04/06 07:51:15;;;;;;;;;;;9.90;99.90;;;;;;4928156;29;19926;-73
2022/04/06 07:53:42;;;;;;;;;;;10.00;99.90;;;;;;4929935;29;19927;-73
2022/04/06 07:56:14;;;;;;;;;;;10.00;99.90;;;;;;4920548;29;19923;-72
2022/04/06 07:58:45;;;;;;;;;;;10.00;99.90;;;;;;4932017;29;20274;-73
2022/04/06 08:01:12;;;;;;;;;;;10.10;99.90;;;;;;4931104;29;19927;-72
2022/04/06 08:03:44;;;;;;;;;;;10.10;99.90;;;;;;4932643;29;19926;-72
2022/04/06 08:06:16;;;;;;;;;;;10.10;99.90;;;;;;4924043;29;19923;-72
2022/04/06 08:08:42;;;;;;;;;;;10.20;99.90;;;;;;4933107;29;19954;-73
2022/04/06 08:11:14;;;;;;;;;;;10.30;99.90;;;;;;4922813;29;20359;-72
2022/04/06 08:13:45;;;;;;;;;;;10.30;99.90;;;;;;4939442;29;19926;-72
2022/04/06 08:16:17;;;;;;;;;;;10.40;99.90;;;;;;4930648;29;19930;-72
2022/04/06 08:18:44;;;;;;;;;;;10.40;99.90;;;;;;4936544;29;19927;-72
2022/04/06 08:21:17;;;;;;;;;;;10.40;99.90;;;;;;4934026;29;20373;-72
2022/04/06 08:23:48;;;;;;;;;;;10.40;99.90;;;;;;4951354;29;19922;-73
2022/04/06 08:26:15;;;;;;;;;;;10.50;99.90;;;;;;4955074;29;20020;-72
2022/04/06 08:28:42;;;;;;;;;;;10.40;99.90;;;;;;4937730;29;19922;-72
2022/04/06 08:31:09;;;;;;;;;;;10.50;99.90;;;;;;4933985;29;19942;-73
2022/04/06 08:33:41;;;;;;;;;;;10.60;99.90;;;;;;4930798;29;20390;-74
2022/04/06 08:36:09;;;;;;;;;;;10.60;99.90;;;;;;4947918;29;19922;-73
2022/04/06 08:38:35;;;;;;;;;;;10.70;99.90;;;;;;4936157;29;19923;-73
2022/04/06 08:41:07;;;;;;;;;;;10.70;99.90;;;;;;4933361;29;19958;-72
2022/04/06 08:43:39;;;;;;;;;;;10.80;99.90;;;;;;4931137;29;19923;-72
2022/04/06 08:46:11;;;;;;;;;;;10.90;99.90;;;;;;4935725;29;20010;-72
2022/04/06 08:48:38;;;;;;;;;;;10.90;99.90;;;;;;4935340;29;20592;-73
2022/04/06 08:51:09;;;;;;;;;;;10.90;99.90;;;;;;4932273;29;20400;-73
2022/04/06 08:53:39;;;;;;;;;;;10.90;99.90;;;;;;4939809;29;20281;-73
2022/04/06 08:56:07;;;;;;;;;;;10.90;99.90;;;;;;4919168;29;19926;-73
2022/04/06 08:58:39;;;;;;;;;;;10.90;99.90;;;;;;4935619;29;19922;-72
2022/04/06 09:01:10;;;;;;;;;;;10.90;99.90;;;;;;4923805;29;19927;-73
2022/04/06 09:03:42;;;;;;;;;;;11.00;99.90;;;;;;4940065;29;19922;-72
2022/04/06 09:06:14;;;;;;;;;;;11.00;99.90;;;;;;4917630;29;19944;-72
2022/04/06 09:08:43;;;;;;;;;;;11.10;99.90;;;;;;4919789;29;19990;-72
2022/04/06 09:11:15;;;;;;;;;;;11.10;99.90;;;;;;4931582;29;19922;-72
2022/04/06 09:13:43;;;;;;;;;;;11.20;99.90;;;;;;4932236;29;19923;-73
2022/04/06 09:16:11;;;;;;;;;;;11.30;99.90;;;;;;4936235;29;19922;-73
2022/04/06 09:18:44;;;;;;;;;;;11.40;99.90;;;;;;4936356;29;19922;-73
2022/04/06 09:21:16;;;;;;;;;;;11.50;99.90;;;;;;4931757;29;19929;-72
2022/04/06 09:23:48;;;;;;;;;;;11.50;99.90;;;;;;4934452;29;20293;-73
2022/04/06 09:26:17;;;;;;;;;;;11.50;99.90;;;;;;4936178;29;19923;-72
2022/04/06 09:28:47;;;;;;;;;;;11.50;99.90;;;;;;4935711;29;19923;-73
2022/04/06 09:31:19;;;;;;;;;;;11.50;99.90;;;;;;4930858;29;19927;-73
2022/04/06 09:33:58;;;;;;;;;;;11.50;99.90;;;;;;4924362;29;19927;-72
2022/04/06 09:36:29;;;;;;;;;;;11.70;99.90;;;;;;4915973;29;19923;-72
2022/04/06 09:38:56;;;;;;;;;;;11.70;99.90;;;;;;4915957;29;19979;-73
2022/04/06 09:41:30;;;;;;;;;;;11.70;99.90;;;;;;4920472;29;20293;-74
2022/04/06 09:44:07;;;;;;;;;;;11.70;99.90;;;;;;4931681;29;20290;-72
2022/04/06 09:49:25;;;;;;;;;;;11.60;99.90;;;;;;4935224;29;20017;-72
2022/04/06 09:51:51;;;;;;;;;;;11.80;99.90;;;;;;4931579;29;19927;-73
2022/04/06 09:54:18;;;;;;;;;;;12.10;99.90;;;;;;4934509;29;19950;-73
2022/04/06 09:56:54;;;;;;;;;;;12.40;99.90;;;;;;4931217;29;19923;-72
2022/04/06 09:59:21;;;;;;;;;;;12.60;99.90;;;;;;4930727;29;20404;-72
2022/04/06 10:01:48;;;;;;;;;;;12.70;99.90;;;;;;4911620;29;19927;-72
2022/04/06 10:04:17;;;;;;;;;;;12.80;99.90;;;;;;4934823;29;19931;-72
2022/04/06 10:06:44;;;;;;;;;;;13.00;99.90;;;;;;4934117;29;20286;-72
2022/04/06 10:09:16;;;;;;;;;;;13.10;99.90;;;;;;4934888;29;19929;-72
2022/04/06 10:11:51;;;;;;;;;;;13.20;99.90;;;;;;4910408;29;19923;-73
2022/04/06 10:14:24;;;;;;;;;;;13.40;99.90;;;;;;4919174;29;20433;-72
2022/04/06 10:16:56;;;;;;;;;;;13.40;99.90;;;;;;4940496;29;19923;-73
2022/04/06 10:19:24;;;;;;;;;;;13.30;99.90;;;;;;4930273;29;19929;-72
2022/04/06 10:21:59;;;;;;;;;;;13.40;99.90;;;;;;4923894;29;19929;-73
2022/04/06 10:24:44;;;;;;;;;;;13.30;99.90;;;;;;4933729;29;19928;-73
2022/04/06 10:27:27;;;;;;;;;;;13.30;99.90;;;;;;4934165;29;20341;-72
2022/04/06 10:30:07;;;;;;;;;;;13.30;99.90;;;;;;4914723;29;19923;-72
2022/04/06 10:32:40;;;;;;;;;;;13.40;99.90;;;;;;4932645;29;20302;-72
2022/04/06 10:35:19;;;;;;;;;;;13.50;99.90;;;;;;4928705;29;19958;-73
2022/04/06 10:37:53;;;;;;;;;;;13.60;99.90;;;;;;4929827;29;19981;-72
2022/04/06 10:40:26;;;;;;;;;;;13.80;99.90;;;;;;4918215;29;19932;-73
2022/04/06 10:42:58;;;;;;;;;;;14.00;99.90;;;;;;4934621;29;20437;-72
2022/04/06 10:45:25;;;;;;;;;;;14.10;99.90;;;;;;4920574;29;19926;-72
2022/04/06 10:48:15;;;;;;;;;;;14.10;99.90;;;;;;4933193;29;20285;-72
2022/04/06 10:50:43;;;;;;;;;;;14.20;99.90;;;;;;4932098;29;20370;-73
2022/04/06 10:53:18;;;;;;;;;;;14.30;99.90;;;;;;4919998;29;19935;-73
2022/04/06 10:56:12;;;;;;;;;;;14.50;99.90;;;;;;4932792;29;20029;-72
2022/04/06 10:58:56;;;;;;;;;;;14.60;99.90;;;;;;4945418;29;20386;-73
2022/04/06 11:01:26;;;;;;;;;;;14.70;99.90;;;;;;4933089;28;19954;-73
2022/04/06 11:03:56;;;;;;;;;;;14.60;99.90;;;;;;4924143;29;19923;-73
2022/04/06 11:06:44;;;;;;;;;;;14.60;99.90;;;;;;4933590;29;19930;-73
2022/04/06 11:12:19;;;;;;;;;;;14.70;99.90;;;;;;4923771;28;19937;-73
2022/04/06 11:14:57;;;;;;;;;;;14.80;99.90;;;;;;4946771;29;19926;-73
2022/04/06 11:17:42;;;;;;;;;;;14.70;99.90;;;;;;4937703;29;19926;-72
2022/04/06 11:20:16;;;;;;;;;;;14.50;99.90;;;;;;4933021;28;19930;-73
2022/04/06 11:22:44;;;;;;;;;;;14.40;99.90;;;;;;4929231;29;19930;-73
2022/04/06 11:25:15;;;;;;;;;;;14.40;99.90;;;;;;4932844;29;19985;-72
2022/04/06 11:27:47;;;;;;;;;;;14.40;99.90;;;;;;4934381;29;19923;-73
2022/04/06 11:30:19;;;;;;;;;;;14.50;99.90;;;;;;4921625;29;19923;-72
2022/04/06 11:32:53;;;;;;;;;;;14.80;99.90;;;;;;4927897;28;20026;-72
2022/04/06 11:35:34;;;;;;;;;;;14.80;99.90;;;;;;4935753;28;20006;-72
2022/04/06 11:38:06;;;;;;;;;;;14.90;99.90;;;;;;4933412;29;19926;-72
2022/04/06 11:40:39;;;;;;;;;;;15.00;99.90;;;;;;4918775;29;19930;-72
2022/04/06 11:43:11;;;;;;;;;;;15.10;99.90;;;;;;4929939;29;20186;-72
2022/04/06 11:45:47;;;;;;;;;;;15.20;99.90;;;;;;4927344;29;20364;-72
2022/04/06 11:48:19;;;;;;;;;;;15.40;99.90;;;;;;4934209;29;19933;-72
2022/04/06 11:50:48;;;;;;;;;;;15.60;99.90;;;;;;4929511;29;19927;-73
2022/04/06 11:53:20;;;;;;;;;;;15.40;99.90;;;;;;4914766;29;20683;-72
2022/04/06 11:55:54;;;;;;;;;;;15.30;99.90;;;;;;4913746;29;19978;-72
2022/04/06 11:58:33;;;;;;;;;;;15.30;99.90;;;;;;4942902;29;19966;-72
2022/04/06 12:01:05;;;;;;;;;;;15.30;99.90;;;;;;4932474;29;19927;-72
2022/04/06 12:03:39;;;;;;;;;;;15.20;99.90;;;;;;4929695;29;19934;-72
2022/04/06 12:06:12;;;;;;;;;;;15.10;99.90;;;;;;4931700;29;19926;-73
2022/04/06 12:08:45;;;;;;;;;;;14.90;99.90;;;;;;4932388;29;19929;-72
2022/04/06 12:11:20;;;;;;;;;;;14.90;99.90;;;;;;4923471;29;19922;-72
2022/04/06 12:13:52;;;;;;;;;;;14.90;99.90;;;;;;4938264;29;20370;-72
2022/04/06 12:16:22;;;;;;;;;;;15.00;99.90;;;;;;4913897;29;19974;-72
2022/04/06 12:18:54;;;;;;;;;;;15.00;99.90;;;;;;4911140;29;19930;-72
2022/04/06 12:21:27;;;;;;;;;;;15.10;99.90;;;;;;4926245;29;20366;-72
2022/04/06 12:23:59;;;;;;;;;;;15.20;99.90;;;;;;4936401;28;20642;-72
2022/04/06 12:26:51;;;;;;;;;;;15.40;99.90;;;;;;4929357;29;19926;-72
2022/04/06 12:29:23;;;;;;;;;;;15.60;99.90;;;;;;4912956;29;20394;-72
2022/04/06 12:31:55;;;;;;;;;;;15.80;99.90;;;;;;4934810;28;20316;-73
2022/04/06 12:34:40;;;;;;;;;;;16.10;99.90;;;;;;4932444;29;20443;-73
2022/04/06 12:40:23;;;;;;;;;;;16.50;99.90;;;;;;4903069;28;19922;-72
2022/04/06 12:42:54;;;;;;;;;;;16.40;99.90;;;;;;4938216;29;19937;-72
2022/04/06 12:45:21;;;;;;;;;;;16.30;99.90;;;;;;4930432;29;19926;-73
2022/04/06 12:48:13;;;;;;;;;;;16.00;99.90;;;;;;4926439;29;20297;-72
2022/04/06 12:50:44;;;;;;;;;;;15.70;99.90;;;;;;4930922;29;19930;-72
2022/04/06 12:53:12;;;;;;;;;;;15.70;99.90;;;;;;4939249;29;19928;-72
2022/04/06 12:55:44;;;;;;;;;;;15.80;99.90;;;;;;4939510;29;19944;-72
2022/04/06 12:58:18;;;;;;;;;;;15.90;99.90;;;;;;4933382;29;20437;-72
2022/04/06 13:00:59;;;;;;;;;;;15.90;99.90;;;;;;4925149;29;20271;-72
2022/04/06 13:03:31;;;;;;;;;;;15.80;99.90;;;;;;4928752;29;19978;-71
2022/04/06 13:06:02;;;;;;;;;;;15.80;99.90;;;;;;4944208;29;19942;-72
2022/04/06 13:08:34;;;;;;;;;;;15.80;99.90;;;;;;4931644;29;20421;-72
2022/04/06 13:11:02;;;;;;;;;;;15.70;99.90;;;;;;4942373;29;20290;-72
2022/04/06 13:13:29;;;;;;;;;;;15.70;99.90;;;;;;4933872;29;19946;-71
2022/04/06 13:16:01;;;;;;;;;;;15.80;99.90;;;;;;4952481;29;19922;-72
2022/04/06 13:18:32;;;;;;;;;;;15.70;99.90;;;;;;4953764;29;19922;-72
2022/04/06 13:20:59;;;;;;;;;;;15.70;99.90;;;;;;4950827;28;20394;-72
2022/04/06 13:23:25;;;;;;;;;;;15.60;99.90;;;;;;4928018;29;19949;-72
2022/04/06 13:25:57;;;;;;;;;;;15.50;99.90;;;;;;4949593;29;19929;-72
2022/04/06 13:28:24;;;;;;;;;;;15.70;99.90;;;;;;4954166;29;20284;-72
2022/04/06 13:30:51;;;;;;;;;;;15.70;99.90;;;;;;4939141;28;20358;-71
2022/04/06 13:33:23;;;;;;;;;;;15.70;99.90;;;;;;4938958;29;19929;-72
2022/04/06 13:35:56;;;;;;;;;;;15.90;99.90;;;;;;4933927;29;20374;-72
2022/04/06 13:38:28;;;;;;;;;;;16.00;99.90;;;;;;4924849;29;19926;-71
2022/04/06 13:40:55;;;;;;;;;;;16.00;99.90;;;;;;4932627;29;19930;-72
2022/04/06 13:43:26;;;;;;;;;;;16.00;99.90;;;;;;4935065;29;19929;-72
2022/04/06 13:45:58;;;;;;;;;;;15.90;99.90;;;;;;4954929;29;19922;-72
2022/04/06 13:48:25;;;;;;;;;;;15.80;99.90;;;;;;4953656;29;20335;-72
2022/04/06 13:50:56;;;;;;;;;;;15.80;99.90;;;;;;4950032;28;19923;-72
2022/04/06 13:53:28;;;;;;;;;;;16.00;99.90;;;;;;4938428;29;19942;-71
2022/04/06 13:55:59;;;;;;;;;;;16.20;99.90;;;;;;4943370;29;19923;-79
2022/04/06 13:58:26;;;;;;;;;;;16.20;99.90;;;;;;4938081;28;20070;-71
2022/04/06 14:00:53;;;;;;;;;;;16.20;99.90;;;;;;4925861;29;20405;-72
2022/04/06 14:03:20;;;;;;;;;;;16.10;99.90;;;;;;4919743;29;20365;-72
2022/04/06 14:05:48;;;;;;;;;;;16.10;99.90;;;;;;4937497;28;19926;-71
2022/04/06 14:08:14;;;;;;;;;;;16.10;99.90;;;;;;4921711;29;19926;-72
2022/04/06 14:10:41;;;;;;;;;;;16.10;99.90;;;;;;4913583;29;19923;-72
2022/04/06 14:13:14;;;;;;;;;;;16.10;99.90;;;;;;4928323;29;19970;-72
2022/04/06 14:15:46;;;;;;;;;;;16.00;99.90;;;;;;4920739;29;19927;-72
2022/04/06 14:18:19;;;;;;;;;;;16.10;99.90;;;;;;4933357;29;19930;-74
2022/04/06 14:20:51;;;;;;;;;;;16.40;99.90;;;;;;4929767;29;19926;-75
2022/04/06 14:23:18;;;;;;;;;;;16.60;99.90;;;;;;4919193;29;20370;-73
2022/04/06 14:25:50;;;;;;;;;;;16.70;99.90;;;;;;4931934;29;19926;-71
2022/04/06 14:28:21;;;;;;;;;;;16.70;99.90;;;;;;4930006;29;19930;-72
2022/04/06 14:30:52;;;;;;;;;;;16.50;99.90;;;;;;4926869;29;20587;-71
2022/04/06 14:33:24;;;;;;;;;;;16.30;99.90;;;;;;4930546;29;20477;-71
2022/04/06 14:35:50;;;;;;;;;;;16.10;99.90;;;;;;4928926;29;19933;-72
2022/04/06 14:38:22;;;;;;;;;;;16.10;99.90;;;;;;4931157;29;20302;-72
2022/04/06 14:40:49;;;;;;;;;;;16.00;99.90;;;;;;4927401;29;19966;-72
2022/04/06 14:43:20;;;;;;;;;;;15.90;99.90;;;;;;4927360;28;20369;-72
2022/04/06 14:45:49;;;;;;;;;;;15.90;99.90;;;;;;4930204;29;19926;-72
2022/04/06 14:48:16;;;;;;;;;;;16.00;99.90;;;;;;4916093;29;19933;-71
2022/04/06 14:50:48;;;;;;;;;;;15.90;99.90;;;;;;4929912;28;19929;-73
2022/04/06 14:53:20;;;;;;;;;;;15.80;99.90;;;;;;4953020;28;19951;-71
2022/04/06 14:55:47;;;;;;;;;;;15.60;99.90;;;;;;4928962;29;19962;-72
2022/04/06 14:58:13;;;;;;;;;;;15.50;99.90;;;;;;4920286;29;19929;-72
2022/04/06 15:00:40;;;;;;;;;;;15.50;99.90;;;;;;4923232;29;19923;-72